QFA696 YPAD-YMML
Flight info
| Callsign | QFA696 |
|---|---|
| Flight time | N/A |
| Altitude | 31000 |
| Route | BENDO3/05 BENDO Y12 ARBEY H119 ML |
| Aircraft | A332/H-SDE3GHIJ2J3J5M1RVWXY/LB2D1 |
Departure
| Time | 2026-05-01 14:18 |
|---|---|
| Airport | Adelaide International Airport (YPAD) |
Arrival
| Time | N/A |
|---|---|
| Airport | Melbourne Airport (YMML) |
| Time | Latitude | Longitude | Altitude | Speed | Heading |
|---|---|---|---|---|---|
| 2026-05-01 13:49 | -34.94188 | 138.53036 | 30 ft | 0 kts | 296° |
| 2026-05-01 14:03 | -34.94187 | 138.53035 | 30 ft | 0 kts | 296° |
| 2026-05-01 14:04 | -34.94186 | 138.53032 | 30 ft | 2 kts | 296° |
| 2026-05-01 14:04 | -34.94181 | 138.53017 | 29 ft | 4 kts | 292° |
| 2026-05-01 14:05 | -34.94201 | 138.52947 | 28 ft | 9 kts | 213° |
| 2026-05-01 14:05 | -34.94248 | 138.52926 | 30 ft | 12 kts | 193° |
| 2026-05-01 14:05 | -34.94348 | 138.52942 | 31 ft | 17 kts | 148° |
| 2026-05-01 14:05 | -34.94437 | 138.53001 | 28 ft | 12 kts | 189° |
| 2026-05-01 14:06 | -34.94505 | 138.52947 | 27 ft | 12 kts | 217° |
| 2026-05-01 14:06 | -34.94566 | 138.52888 | 26 ft | 11 kts | 218° |
| 2026-05-01 14:06 | -34.94633 | 138.52825 | 26 ft | 13 kts | 217° |
| 2026-05-01 14:06 | -34.94743 | 138.52723 | 28 ft | 16 kts | 217° |
| 2026-05-01 14:07 | -34.94805 | 138.52664 | 28 ft | 17 kts | 217° |
| 2026-05-01 14:07 | -34.94904 | 138.52572 | 23 ft | 19 kts | 217° |
| 2026-05-01 14:07 | -34.95049 | 138.52435 | 22 ft | 20 kts | 218° |
| 2026-05-01 14:08 | -34.95236 | 138.52260 | 26 ft | 20 kts | 218° |
| 2026-05-01 14:08 | -34.95328 | 138.52147 | 27 ft | 18 kts | 229° |
| 2026-05-01 14:08 | -34.95411 | 138.52026 | 29 ft | 18 kts | 230° |
| 2026-05-01 14:08 | -34.95491 | 138.51908 | 25 ft | 18 kts | 230° |
| 2026-05-01 14:09 | -34.95578 | 138.51783 | 22 ft | 20 kts | 230° |
| 2026-05-01 14:09 | -34.95671 | 138.51660 | 20 ft | 18 kts | 216° |
| 2026-05-01 14:09 | -34.95741 | 138.51643 | 18 ft | 0 kts | 167° |
| 2026-05-01 14:16 | -34.95769 | 138.51659 | 17 ft | 8 kts | 151° |
| 2026-05-01 14:16 | -34.95825 | 138.51724 | 15 ft | 12 kts | 107° |
| 2026-05-01 14:16 | -34.95794 | 138.51804 | 16 ft | 8 kts | 52° |
| 2026-05-01 14:16 | -34.95793 | 138.51806 | 16 ft | 0 kts | 52° |
| 2026-05-01 14:17 | -34.95762 | 138.51853 | 16 ft | 34 kts | 51° |
| 2026-05-01 14:17 | -34.95451 | 138.52304 | 23 ft | 104 kts | 50° |
| 2026-05-01 14:17 | -34.94852 | 138.53175 | 55 ft | 160 kts | 50° |
| 2026-05-01 14:17 | -34.94098 | 138.54280 | 545 ft | 177 kts | 50° |
| 2026-05-01 14:18 | -34.93300 | 138.55484 | 1191 ft | 187 kts | 51° |
| 2026-05-01 14:18 | -34.92490 | 138.56745 | 1894 ft | 192 kts | 52° |
| 2026-05-01 14:18 | -34.91656 | 138.58054 | 2578 ft | 202 kts | 51° |
| 2026-05-01 14:18 | -34.91121 | 138.59034 | 2899 ft | 221 kts | 66° |
| 2026-05-01 14:19 | -34.91159 | 138.61802 | 3056 ft | 286 kts | 114° |
| 2026-05-01 14:19 | -34.92324 | 138.64048 | 2995 ft | 339 kts | 128° |
| 2026-05-01 14:19 | -34.93830 | 138.66257 | 4358 ft | 335 kts | 130° |
| 2026-05-01 14:19 | -34.95302 | 138.68425 | 5896 ft | 331 kts | 125° |
| 2026-05-01 14:20 | -34.96529 | 138.70818 | 7087 ft | 336 kts | 120° |
| 2026-05-01 14:20 | -34.98936 | 138.75887 | 8705 ft | 353 kts | 120° |
| 2026-05-01 14:20 | -35.00200 | 138.78497 | 9453 ft | 362 kts | 121° |
| 2026-05-01 14:21 | -35.01508 | 138.81169 | 10203 ft | 371 kts | 121° |
| 2026-05-01 14:21 | -35.02846 | 138.83888 | 11027 ft | 377 kts | 121° |
| 2026-05-01 14:21 | -35.04207 | 138.86644 | 11875 ft | 382 kts | 121° |
| 2026-05-01 14:22 | -35.06829 | 138.92350 | 13443 ft | 391 kts | 110° |
| 2026-05-01 14:22 | -35.07757 | 138.95485 | 14199 ft | 395 kts | 110° |
| 2026-05-01 14:22 | -35.08683 | 138.98652 | 14957 ft | 398 kts | 109° |
| 2026-05-01 14:22 | -35.09604 | 139.01801 | 15703 ft | 379 kts | 110° |
| 2026-05-01 14:23 | -35.10452 | 139.04671 | 16430 ft | 341 kts | 110° |
| 2026-05-01 14:23 | -35.11218 | 139.07241 | 17154 ft | 316 kts | 110° |
| 2026-05-01 14:23 | -35.11967 | 139.09743 | 17888 ft | 311 kts | 110° |
| 2026-05-01 14:23 | -35.12710 | 139.12213 | 18630 ft | 309 kts | 110° |
| 2026-05-01 14:24 | -35.13447 | 139.14661 | 19376 ft | 306 kts | 110° |
| 2026-05-01 14:24 | -35.14177 | 139.17086 | 20094 ft | 303 kts | 110° |
| 2026-05-01 14:24 | -35.14907 | 139.19511 | 20640 ft | 305 kts | 110° |
| 2026-05-01 14:24 | -35.15641 | 139.21948 | 21140 ft | 306 kts | 110° |
| 2026-05-01 14:25 | -35.16375 | 139.24387 | 21646 ft | 306 kts | 110° |
| 2026-05-01 14:25 | -35.17109 | 139.26827 | 22148 ft | 306 kts | 110° |
| 2026-05-01 14:25 | -35.17841 | 139.29264 | 22641 ft | 305 kts | 110° |
| 2026-05-01 14:25 | -35.18570 | 139.31691 | 23137 ft | 303 kts | 110° |
| 2026-05-01 14:26 | -35.19293 | 139.34104 | 23630 ft | 301 kts | 110° |
| 2026-05-01 14:26 | -35.20721 | 139.38870 | 24616 ft | 295 kts | 110° |
| 2026-05-01 14:26 | -35.21421 | 139.41211 | 25106 ft | 291 kts | 110° |
| 2026-05-01 14:27 | -35.22109 | 139.43512 | 25591 ft | 285 kts | 110° |
| 2026-05-01 14:27 | -35.22782 | 139.45766 | 26078 ft | 279 kts | 110° |
| 2026-05-01 14:27 | -35.23438 | 139.47965 | 26562 ft | 271 kts | 110° |
| 2026-05-01 14:28 | -35.24757 | 139.52170 | 27327 ft | 259 kts | 113° |
| 2026-05-01 14:28 | -35.25476 | 139.54162 | 27637 ft | 255 kts | 115° |
| 2026-05-01 14:28 | -35.26288 | 139.56176 | 27356 ft | 278 kts | 116° |
| 2026-05-01 14:28 | -35.27190 | 139.58395 | 27012 ft | 304 kts | 116° |
| 2026-05-01 14:29 | -35.28158 | 139.60805 | 26747 ft | 327 kts | 116° |
| 2026-05-01 14:29 | -35.29185 | 139.63392 | 26517 ft | 349 kts | 116° |
| 2026-05-01 14:30 | -35.32413 | 139.71971 | 26848 ft | 378 kts | 114° |
| 2026-05-01 14:30 | -35.33492 | 139.74891 | 27342 ft | 375 kts | 114° |
| 2026-05-01 14:30 | -35.34564 | 139.77793 | 27837 ft | 373 kts | 114° |
| 2026-05-01 14:31 | -35.36684 | 139.83522 | 28822 ft | 365 kts | 114° |
| 2026-05-01 14:31 | -35.37726 | 139.86337 | 29315 ft | 361 kts | 114° |
| 2026-05-01 14:31 | -35.38756 | 139.89118 | 29806 ft | 356 kts | 114° |
| 2026-05-01 14:31 | -35.39770 | 139.91852 | 30297 ft | 350 kts | 114° |
| 2026-05-01 14:32 | -35.40768 | 139.94543 | 30784 ft | 343 kts | 114° |
| 2026-05-01 14:32 | -35.41743 | 139.97180 | 31201 ft | 339 kts | 114° |
| 2026-05-01 14:32 | -35.42724 | 139.99847 | 31220 ft | 348 kts | 114° |
| 2026-05-01 14:32 | -35.43741 | 140.02619 | 31013 ft | 363 kts | 114° |
| 2026-05-01 14:33 | -35.44788 | 140.05478 | 31005 ft | 372 kts | 114° |
| 2026-05-01 14:33 | -35.46955 | 140.11412 | 31006 ft | 390 kts | 114° |
| 2026-05-01 14:34 | -35.49219 | 140.17621 | 31003 ft | 407 kts | 114° |
| 2026-05-01 14:34 | -35.51578 | 140.24099 | 31005 ft | 424 kts | 114° |
| 2026-05-01 14:35 | -35.54026 | 140.30836 | 31002 ft | 440 kts | 114° |
| 2026-05-01 14:35 | -35.56561 | 140.37830 | 31004 ft | 456 kts | 114° |
| 2026-05-01 14:36 | -35.59178 | 140.45064 | 30999 ft | 471 kts | 114° |
| 2026-05-01 14:36 | -35.61851 | 140.52471 | 31000 ft | 484 kts | 114° |
| 2026-05-01 14:37 | -35.64611 | 140.60139 | 30997 ft | 497 kts | 114° |
| 2026-05-01 14:37 | -35.67425 | 140.67975 | 31001 ft | 503 kts | 114° |
| 2026-05-01 14:38 | -35.70245 | 140.75848 | 31001 ft | 503 kts | 114° |
| 2026-05-01 14:38 | -35.73058 | 140.83724 | 31003 ft | 503 kts | 114° |
| 2026-05-01 14:39 | -35.75868 | 140.91608 | 31001 ft | 503 kts | 114° |
| 2026-05-01 14:39 | -35.78672 | 140.99497 | 31001 ft | 503 kts | 114° |
| 2026-05-01 14:40 | -35.81471 | 141.07393 | 30998 ft | 503 kts | 114° |
| 2026-05-01 14:40 | -35.84265 | 141.15292 | 31000 ft | 503 kts | 114° |
| 2026-05-01 14:41 | -35.87055 | 141.23202 | 31003 ft | 503 kts | 113° |
| 2026-05-01 14:41 | -35.89838 | 141.31113 | 31000 ft | 503 kts | 113° |
| 2026-05-01 14:42 | -35.92617 | 141.39031 | 31000 ft | 503 kts | 113° |
| 2026-05-01 14:42 | -35.95389 | 141.46951 | 30997 ft | 503 kts | 113° |
| 2026-05-01 14:43 | -35.98156 | 141.54876 | 31000 ft | 503 kts | 113° |
| 2026-05-01 14:43 | -36.00918 | 141.62808 | 31003 ft | 503 kts | 113° |
| 2026-05-01 14:44 | -36.03674 | 141.70743 | 31001 ft | 503 kts | 113° |
| 2026-05-01 14:44 | -36.07799 | 141.82660 | 31003 ft | 503 kts | 113° |
| 2026-05-01 14:45 | -36.11911 | 141.94583 | 31000 ft | 502 kts | 113° |
| 2026-05-01 14:46 | -36.14645 | 142.02539 | 31000 ft | 503 kts | 113° |
| 2026-05-01 14:46 | -36.18744 | 142.14488 | 31000 ft | 503 kts | 113° |
| 2026-05-01 14:47 | -36.21476 | 142.22456 | 31001 ft | 503 kts | 113° |
| 2026-05-01 14:48 | -36.25563 | 142.34419 | 31001 ft | 503 kts | 113° |
| 2026-05-01 14:48 | -36.29638 | 142.46395 | 31000 ft | 503 kts | 113° |
| 2026-05-01 14:49 | -36.35034 | 142.62330 | 31000 ft | 503 kts | 112° |